Baoji, China
Current Conditions -  °F | °C
As of 2:00 AM on Saturday 25 Oct 2014 (Local Time) from ZLXY Reporting Station
Haze Haze  
Wind Chill: 46°   Ceiling: Unl
Heat Index: 46°   Visibility: 1.5mi
Dew Point: 45°   Wind: 2mph
Humidity: 93%   Direction: 280°W
Pressure: 29.97"   Gusts: NA
Location:  34.38°N, 107.15°E
Report Text: ZLXY 241800Z 28001MPS 2500 BR NSC 08/07 Q1015 NOSIG
Loading
Personal Weather Stations






























Interactive Weather Map
Tropical Storm Tracking
New forecast layout! Learn more

10-Day Weather Forecast

Advertisements
Track Severe Weather on mobile